ADDS METAR Data INFO
IDs: Format: Raw Decoded Include TAF

Data at: 1938 UTC 17 Feb 2018

K6I2 171910Z AUTO 00000KT 1 1/2SM -RA OVC003 03/03 A3002 RMK AO2
K6I2 171850Z AUTO 00000KT 1 3/4SM -RA OVC003 03/03 A3003 RMK AO2
K6I2 171830Z AUTO 10003KT 1 3/4SM -RA BKN003 OVC013 03/03 A3003 RMK AO2
K6I2 171810Z AUTO 00000KT 1SM RA OVC003 03/03 A3005 RMK AO2
K6I2 171750Z AUTO 11007KT 1 1/4SM RA BKN002 BKN015 BKN037 02/02 A3003 RMK AO2
K6I2 171730Z AUTO 09005KT 1SM +RA BKN002 OVC015 02/02 A3005 RMK AO2
K6I2 171710Z AUTO 06003KT 1SM RA BKN003 OVC016 02/02 A3009 RMK AO2
K6I2 171650Z AUTO 04003KT 1 1/4SM -RA BKN004 OVC016 02/02 A3010 RMK AO2
K6I2 171630Z AUTO 35003KT 1 1/4SM -RA SCT010 OVC018 02/02 A3015 RMK AO2
K6I2 171610Z AUTO 34006KT 1 1/4SM -RA SCT001 BKN010 OVC018 02/02 A3015 RMK AO2
K6I2 171550Z AUTO 33006KT 2 1/2SM -RA BKN008 OVC039 03/02 A3015 RMK AO2
K6I2 171530Z AUTO 35004KT 5SM -RA FEW008 FEW022 SCT039 03/01 A3011 RMK AO2
K6I2 171510Z AUTO 04004KT 8SM FEW080 03/00 A3005 RMK AO2
K6I2 171450Z AUTO 07006KT 8SM CLR 02/00 A3007 RMK AO2
K6I2 171430Z AUTO 05006KT 8SM CLR 02/00 A3010 RMK AO2
K6I2 171410Z AUTO 03004KT 9SM CLR 02/00 A3014 RMK AO2
K6I2 171350Z AUTO 00000KT 8SM CLR 02/00 A3015 RMK AO2
K6I2 171330Z AUTO 06003KT 8SM CLR 02/00 A3014 RMK AO2
K6I2 171310Z AUTO 06003KT 8SM SCT120 02/00 A3014 RMK AO2
K6I2 171250Z AUTO 06005KT 9SM SCT120 02/00 A3013 RMK AO2
K6I2 171230Z AUTO 07005KT 10SM CLR 02/00 A3013 RMK AO2
K6I2 171210Z AUTO 04004KT 10SM CLR 02/00 A3014 RMK AO2
K6I2 171150Z AUTO 07004KT 10SM CLR 02/00 A3015 RMK AO2
K6I2 171130Z AUTO 04004KT 10SM CLR 02/00 A3016 RMK AO2
K6I2 171110Z AUTO 05003KT 9SM CLR 02/00 A3016 RMK AO2
K6I2 171050Z AUTO 06004KT 10SM CLR 01/00 A3016 RMK AO2
K6I2 171030Z AUTO 06004KT 10SM CLR 01/00 A3017 RMK AO2
K6I2 171010Z AUTO 04004KT 10SM CLR 01/00 A3017 RMK AO2
K6I2 170950Z AUTO 07004KT 10SM CLR 01/00 A3018 RMK AO2
K6I2 170930Z AUTO 05003KT 10SM CLR 01/00 A3019 RMK AO2
K6I2 170910Z AUTO 03003KT 10SM FEW026 02/M01 A3020 RMK AO2
K6I2 170850Z AUTO 00000KT 10SM SCT026 02/M01 A3021 RMK AO2
K6I2 170830Z AUTO 00000KT 10SM BKN026 02/M01 A3022 RMK AO2
K6I2 170810Z AUTO 00000KT 10SM OVC026 02/M01 A3023 RMK AO2
K6I2 170750Z AUTO 00000KT 10SM OVC026 03/M01 A3025 RMK AO2
K6I2 170730Z AUTO 00000KT 10SM OVC026 03/M01 A3024 RMK AO2
K6I2 170710Z AUTO 00000KT 10SM OVC026 03/00 A3025 RMK AO2
K6I2 170650Z AUTO 00000KT 10SM OVC024 03/M01 A3025 RMK AO2
K6I2 170630Z AUTO 00000KT 10SM OVC024 03/00 A3026 RMK AO2
K6I2 170610Z AUTO 00000KT 10SM OVC024 03/M01 A3026 RMK AO2
K6I2 170550Z AUTO 00000KT 10SM OVC024 03/M01 A3026 RMK AO2
K6I2 170530Z AUTO 02003KT 10SM OVC024 03/M01 A3026 RMK AO2
K6I2 170510Z AUTO 00000KT 10SM OVC024 03/M02 A3027 RMK AO2
K6I2 170450Z AUTO 00000KT 10SM OVC022 03/M02 A3027 RMK AO2
K6I2 170430Z AUTO 04003KT 10SM OVC022 03/00 A3027 RMK AO2
K6I2 170410Z AUTO 01003KT 10SM OVC022 03/M01 A3028 RMK AO2
K6I2 170350Z AUTO 00000KT 10SM OVC022 03/M01 A3028 RMK AO2
K6I2 170330Z AUTO 36005KT 10SM OVC022 03/M01 A3028 RMK AO2
K6I2 170310Z AUTO 34003KT 10SM OVC022 03/M01 A3030 RMK AO2
K6I2 170250Z AUTO 36004KT 10SM OVC022 03/M01 A3028 RMK AO2
K6I2 170230Z AUTO 01004KT 10SM OVC022 03/M01 A3028 RMK AO2
K6I2 170210Z AUTO 36006KT 10SM OVC022 03/00 A3029 RMK AO2
K6I2 170150Z AUTO 00000KT 10SM OVC022 03/M01 A3028 RMK AO2
K6I2 170130Z AUTO 01005KT 10SM OVC022 03/M01 A3029 RMK AO2
K6I2 170110Z AUTO 35005KT 10SM OVC022 03/00 A3030 RMK AO2
K6I2 170050Z AUTO 35007KT 10SM OVC022 04/00 A3029 RMK AO2
K6I2 170030Z AUTO 01004KT 10SM OVC022 04/00 A3028 RMK AO2
K6I2 170010Z AUTO 01005KT 10SM OVC022 04/00 A3027 RMK AO2
K6I2 162350Z AUTO 35005KT 10SM OVC024 04/00 A3027 RMK AO2
K6I2 162330Z AUTO 35008KT 10SM OVC026 04/00 A3026 RMK AO2
K6I2 162310Z AUTO 35006KT 9SM OVC024 04/01 A3026 RMK AO2
K6I2 162250Z AUTO 35011KT 9SM OVC022 04/01 A3026 RMK AO2
K6I2 162230Z AUTO 35009G18KT 8SM OVC019 04/02 A3025 RMK AO2
K6I2 162210Z AUTO 34012KT 8SM BKN019 OVC025 05/02 A3024 RMK AO2
K6I2 162150Z AUTO 35009KT 7SM BKN017 OVC025 05/02 A3023 RMK AO2
K6I2 162130Z AUTO 34012KT 5SM HZ SCT018 OVC023 05/03 A3022 RMK AO2
K6I2 162110Z AUTO 34010KT 4SM BR FEW014 SCT019 BKN023 05/03 A3021 RMK AO2
K6I2 162050Z AUTO 34013KT 5SM BR SCT016 BKN024 BKN029 06/04 A3020 RMK AO2
K6I2 162030Z AUTO 32008KT 4SM BR OVC016 05/03 A3020 RMK AO2
K6I2 162010Z AUTO 33010KT 4SM BR OVC014 06/04 A3019 RMK AO2
K6I2 161950Z AUTO 33009KT 5SM BR OVC014 06/04 A3017 RMK AO2
K6I2 161930Z AUTO 33007KT 5SM BR BKN014 OVC020 06/05 A3016 RMK AO2
K6I2 161910Z AUTO 33005KT 7SM BKN016 OVC020 06/05 A3015 RMK AO2
K6I2 161850Z AUTO 35008KT 7SM BKN016 OVC023 06/06 A3014 RMK AO2
K6I2 161830Z AUTO 33010G15KT 8SM BKN014 OVC025 06/06 A3014 RMK AO2
K6I2 161810Z AUTO 32009KT 9SM BKN010 OVC016 06/06 A3013 RMK AO2
K6I2 161745Z AUTO 33008KT 7SM SCT006 BKN010 OVC036 06/06 A3012 RMK AO2
K6I2 161730Z AUTO 31006KT 3SM -RA SCT006 BKN029 BKN039 06/06 A3012 RMK AO2
K6I2 161710Z AUTO 34005KT 3SM -RA SCT035 BKN043 OVC048 06/06 A3010 RMK AO2
K6I2 161650Z AUTO 34007KT 3SM -RA FEW026 BKN038 OVC048 05/05 A3010 RMK AO2
K6I2 161625Z AUTO 33007KT 2SM -RA SCT008 BKN025 OVC045 06/06 A3010 RMK AO2
K6I2 161610Z AUTO 33011KT 1 3/4SM -RA BKN010 BKN025 OVC045 05/05 A3010 RMK AO2
K6I2 161545Z AUTO 33011KT 1 3/4SM RA SCT012 BKN028 OVC040 06/06 A3010 RMK AO2
K6I2 161530Z AUTO 33012G20KT 1 3/4SM RA BKN016 BKN027 OVC043 06/06 A3007 RMK AO2
K6I2 161510Z AUTO 33011G18KT 1 1/2SM RA BKN009 BKN018 OVC026 06/06 A3007 RMK AO2
K6I2 161450Z AUTO 33014G21KT 1SM +RA OVC009 07/07 A3005 RMK AO2
K6I2 161425Z AUTO 35018G23KT 1 1/2SM RA SCT013 OVC020 07/07 A3003 RMK AO2
K6I2 161410Z AUTO 34018G31KT 1SM +RA BKN007 OVC017 08/08 A3001 RMK AO2
K6I2 161350Z AUTO 35027G33KT 1SM RA OVC009 10/10 A2995 RMK AO2
K6I2 161330Z AUTO 34012G21KT 1SM RA OVC003 13/13 A2992 RMK AO2
K6I2 161310Z AUTO 27005KT 1 3/4SM RA BKN003 OVC008 13/13 A2990 RMK AO2
K6I2 161250Z AUTO 27004KT 3SM -RA SCT003 BKN010 OVC034 13/13 A2989 RMK AO2
K6I2 161230Z AUTO 22004KT 1 3/4SM RA BKN002 BKN012 OVC022 13/13 A2988 RMK AO2
K6I2 161210Z AUTO 24003KT 2 1/2SM -RA SCT002 BKN008 OVC019 13/13 A2986 RMK AO2
K6I2 161150Z AUTO 00000KT 1 1/2SM RA SCT004 BKN011 OVC016 13/13 A2987 RMK AO2
K6I2 161130Z AUTO 00000KT 2SM -RA SCT001 BKN023 OVC035 13/13 A2986 RMK AO2
K6I2 161110Z AUTO 31008KT 1 3/4SM RA SCT001 BKN021 OVC025 13/13 A2986 RMK AO2
K6I2 161050Z AUTO 30004KT 2 1/2SM RA FEW011 FEW014 OVC023 14/13 A2986 RMK AO2 VSBY 1 1/2V5
K6I2 161030Z AUTO 32005KT 5SM -RA FEW008 OVC021 14/13 A2985 RMK AO2
K6I2 161010Z AUTO 32007KT 300V360 8SM BKN008 OVC021 14/14 A2984 RMK AO2
K6I2 160945Z AUTO 33004KT 3SM -RA FEW001 SCT008 BKN011 14/14 A2984 RMK AO2 VSBY 1 3/4V4
K6I2 160930Z AUTO 30006G19KT 8SM FEW012 SCT020 BKN026 16/13 A2984 RMK AO2
K6I2 160910Z AUTO 20011KT 10SM BKN030 19/15 A2981 RMK AO2
K6I2 160850Z AUTO 20012KT 10SM BKN030 19/15 A2982 RMK AO2
K6I2 160830Z AUTO 20013KT 10SM BKN030 19/15 A2982 RMK AO2
K6I2 160810Z AUTO 20013KT 10SM BKN030 19/15 A2983 RMK AO2
K6I2 160750Z AUTO 20013G17KT 10SM BKN030 19/15 A2983 RMK AO2